sensor_id;sensor_type;location;lat;lon;timestamp;P1;durP1;ratioP1;P2;durP2;ratioP2
59756;SDS011;45631;51.962;5.974;2023-02-14T00:01:36;26.58;;;15.50;;
59756;SDS011;45631;51.962;5.974;2023-02-14T00:04:06;24.63;;;14.73;;
59756;SDS011;45631;51.962;5.974;2023-02-14T00:06:34;27.08;;;15.68;;
59756;SDS011;45631;51.962;5.974;2023-02-14T00:09:04;29.50;;;16.20;;
59756;SDS011;45631;51.962;5.974;2023-02-14T00:11:33;26.55;;;16.58;;
59756;SDS011;45631;51.962;5.974;2023-02-14T00:14:01;25.65;;;15.13;;
59756;SDS011;45631;51.962;5.974;2023-02-14T00:16:47;26.65;;;14.82;;
59756;SDS011;45631;51.962;5.974;2023-02-14T00:19:19;26.40;;;15.40;;
59756;SDS011;45631;51.962;5.974;2023-02-14T00:21:49;28.83;;;15.77;;
59756;SDS011;45631;51.962;5.974;2023-02-14T00:24:18;28.98;;;16.33;;
59756;SDS011;45631;51.962;5.974;2023-02-14T00:26:48;29.27;;;16.33;;
59756;SDS011;45631;51.962;5.974;2023-02-14T00:29:18;28.38;;;16.40;;
59756;SDS011;45631;51.962;5.974;2023-02-14T00:31:48;27.98;;;15.05;;
59756;SDS011;45631;51.962;5.974;2023-02-14T00:34:16;29.45;;;17.05;;
59756;SDS011;45631;51.962;5.974;2023-02-14T00:36:46;29.02;;;15.43;;
59756;SDS011;45631;51.962;5.974;2023-02-14T00:39:15;28.05;;;16.08;;
59756;SDS011;45631;51.962;5.974;2023-02-14T00:41:44;26.35;;;15.75;;
59756;SDS011;45631;51.962;5.974;2023-02-14T00:44:12;27.85;;;15.32;;
59756;SDS011;45631;51.962;5.974;2023-02-14T00:46:41;25.92;;;14.73;;
59756;SDS011;45631;51.962;5.974;2023-02-14T00:49:09;27.77;;;15.18;;
59756;SDS011;45631;51.962;5.974;2023-02-14T00:51:40;25.67;;;14.05;;
59756;SDS011;45631;51.962;5.974;2023-02-14T00:54:09;24.85;;;14.30;;
59756;SDS011;45631;51.962;5.974;2023-02-14T00:56:38;24.48;;;14.00;;
59756;SDS011;45631;51.962;5.974;2023-02-14T00:59:06;26.60;;;15.00;;
59756;SDS011;45631;51.962;5.974;2023-02-14T01:01:34;24.77;;;14.35;;
59756;SDS011;45631;51.962;5.974;2023-02-14T01:04:02;24.52;;;14.10;;
59756;SDS011;45631;51.962;5.974;2023-02-14T01:06:31;25.42;;;14.13;;
59756;SDS011;45631;51.962;5.974;2023-02-14T01:08:59;26.42;;;13.52;;
59756;SDS011;45631;51.962;5.974;2023-02-14T01:11:29;23.02;;;13.75;;
59756;SDS011;45631;51.962;5.974;2023-02-14T01:13:57;23.02;;;13.27;;
59756;SDS011;45631;51.962;5.974;2023-02-14T01:16:27;26.58;;;14.88;;
59756;SDS011;45631;51.962;5.974;2023-02-14T01:18:57;24.40;;;14.40;;
59756;SDS011;45631;51.962;5.974;2023-02-14T01:21:27;23.17;;;13.15;;
59756;SDS011;45631;51.962;5.974;2023-02-14T01:23:57;22.85;;;13.70;;
59756;SDS011;45631;51.962;5.974;2023-02-14T01:26:29;22.38;;;12.90;;
59756;SDS011;45631;51.962;5.974;2023-02-14T01:28:57;24.80;;;13.77;;
59756;SDS011;45631;51.962;5.974;2023-02-14T01:31:26;21.92;;;13.15;;
59756;SDS011;45631;51.962;5.974;2023-02-14T01:33:56;23.85;;;12.88;;
59756;SDS011;45631;51.962;5.974;2023-02-14T01:36:26;21.42;;;12.63;;
59756;SDS011;45631;51.962;5.974;2023-02-14T01:38:57;24.80;;;13.70;;
59756;SDS011;45631;51.962;5.974;2023-02-14T01:41:31;20.20;;;12.57;;
59756;SDS011;45631;51.962;5.974;2023-02-14T01:44:01;24.70;;;13.63;;
59756;SDS011;45631;51.962;5.974;2023-02-14T01:46:32;23.30;;;13.13;;
59756;SDS011;45631;51.962;5.974;2023-02-14T01:49:02;21.88;;;12.75;;
59756;SDS011;45631;51.962;5.974;2023-02-14T01:51:33;24.50;;;13.20;;
59756;SDS011;45631;51.962;5.974;2023-02-14T01:54:04;21.48;;;12.70;;
59756;SDS011;45631;51.962;5.974;2023-02-14T01:56:37;22.40;;;12.88;;
59756;SDS011;45631;51.962;5.974;2023-02-14T01:59:11;22.63;;;12.18;;
59756;SDS011;45631;51.962;5.974;2023-02-14T02:01:43;24.52;;;13.77;;
59756;SDS011;45631;51.962;5.974;2023-02-14T02:04:13;22.10;;;12.82;;
59756;SDS011;45631;51.962;5.974;2023-02-14T02:06:44;24.20;;;12.73;;
59756;SDS011;45631;51.962;5.974;2023-02-14T02:09:19;21.17;;;12.15;;
59756;SDS011;45631;51.962;5.974;2023-02-14T02:11:52;23.77;;;12.15;;
59756;SDS011;45631;51.962;5.974;2023-02-14T02:14:21;22.10;;;12.40;;
59756;SDS011;45631;51.962;5.974;2023-02-14T02:17:02;21.00;;;11.85;;
59756;SDS011;45631;51.962;5.974;2023-02-14T02:26:02;20.13;;;11.98;;
59756;SDS011;45631;51.962;5.974;2023-02-14T02:28:59;26.58;;;12.52;;
59756;SDS011;45631;51.962;5.974;2023-02-14T02:31:54;21.58;;;11.65;;
59756;SDS011;45631;51.962;5.974;2023-02-14T02:37:42;22.65;;;12.35;;
59756;SDS011;45631;51.962;5.974;2023-02-14T02:40:26;22.08;;;11.65;;
59756;SDS011;45631;51.962;5.974;2023-02-14T02:43:06;20.00;;;10.90;;
59756;SDS011;45631;51.962;5.974;2023-02-14T02:45:45;18.00;;;10.70;;
59756;SDS011;45631;51.962;5.974;2023-02-14T02:48:35;17.98;;;10.85;;
59756;SDS011;45631;51.962;5.974;2023-02-14T02:51:11;19.55;;;11.15;;
59756;SDS011;45631;51.962;5.974;2023-02-14T02:54:07;19.33;;;10.85;;
59756;SDS011;45631;51.962;5.974;2023-02-14T02:56:42;20.30;;;10.50;;
59756;SDS011;45631;51.962;5.974;2023-02-14T02:59:17;19.55;;;10.85;;
59756;SDS011;45631;51.962;5.974;2023-02-14T03:01:49;18.55;;;10.68;;
59756;SDS011;45631;51.962;5.974;2023-02-14T03:04:21;20.20;;;12.02;;
59756;SDS011;45631;51.962;5.974;2023-02-14T03:07:08;19.50;;;11.23;;
59756;SDS011;45631;51.962;5.974;2023-02-14T03:09:55;18.73;;;10.68;;
59756;SDS011;45631;51.962;5.974;2023-02-14T03:12:41;19.52;;;10.45;;
59756;SDS011;45631;51.962;5.974;2023-02-14T03:15:28;17.63;;;9.85;;
59756;SDS011;45631;51.962;5.974;2023-02-14T03:18:11;18.42;;;9.70;;
59756;SDS011;45631;51.962;5.974;2023-02-14T03:21:16;17.05;;;10.52;;
59756;SDS011;45631;51.962;5.974;2023-02-14T03:23:55;19.98;;;10.55;;
59756;SDS011;45631;51.962;5.974;2023-02-14T03:26:33;18.55;;;10.20;;
59756;SDS011;45631;51.962;5.974;2023-02-14T03:29:07;20.42;;;11.45;;
59756;SDS011;45631;51.962;5.974;2023-02-14T03:31:43;18.35;;;10.10;;
59756;SDS011;45631;51.962;5.974;2023-02-14T03:34:22;19.08;;;10.77;;
59756;SDS011;45631;51.962;5.974;2023-02-14T03:36:54;19.63;;;11.15;;
59756;SDS011;45631;51.962;5.974;2023-02-14T03:39:29;21.15;;;10.45;;
59756;SDS011;45631;51.962;5.974;2023-02-14T03:42:05;16.85;;;10.50;;
59756;SDS011;45631;51.962;5.974;2023-02-14T03:44:38;17.63;;;10.35;;
59756;SDS011;45631;51.962;5.974;2023-02-14T03:47:09;18.13;;;10.55;;
59756;SDS011;45631;51.962;5.974;2023-02-14T03:49:44;16.33;;;9.23;;
59756;SDS011;45631;51.962;5.974;2023-02-14T03:52:15;16.48;;;9.90;;
59756;SDS011;45631;51.962;5.974;2023-02-14T03:54:46;18.05;;;9.73;;
59756;SDS011;45631;51.962;5.974;2023-02-14T03:57:18;17.80;;;9.57;;
59756;SDS011;45631;51.962;5.974;2023-02-14T03:59:51;17.75;;;10.25;;
59756;SDS011;45631;51.962;5.974;2023-02-14T04:02:22;16.55;;;9.00;;
59756;SDS011;45631;51.962;5.974;2023-02-14T04:04:53;17.17;;;9.63;;
59756;SDS011;45631;51.962;5.974;2023-02-14T04:07:25;14.90;;;8.53;;
59756;SDS011;45631;51.962;5.974;2023-02-14T04:09:54;15.73;;;8.98;;
59756;SDS011;45631;51.962;5.974;2023-02-14T04:12:22;16.80;;;9.07;;
59756;SDS011;45631;51.962;5.974;2023-02-14T04:15:03;16.40;;;9.23;;
59756;SDS011;45631;51.962;5.974;2023-02-14T04:17:32;15.63;;;8.90;;
59756;SDS011;45631;51.962;5.974;2023-02-14T04:20:18;13.73;;;8.50;;
59756;SDS011;45631;51.962;5.974;2023-02-14T04:22:46;16.50;;;9.05;;
59756;SDS011;45631;51.962;5.974;2023-02-14T04:25:18;13.80;;;8.00;;
59756;SDS011;45631;51.962;5.974;2023-02-14T04:27:48;15.48;;;8.38;;
59756;SDS011;45631;51.962;5.974;2023-02-14T04:30:16;16.67;;;9.18;;
59756;SDS011;45631;51.962;5.974;2023-02-14T04:32:46;14.75;;;8.48;;
59756;SDS011;45631;51.962;5.974;2023-02-14T04:35:14;13.10;;;7.50;;
59756;SDS011;45631;51.962;5.974;2023-02-14T04:37:42;15.10;;;9.27;;
59756;SDS011;45631;51.962;5.974;2023-02-14T04:40:12;14.73;;;8.82;;
59756;SDS011;45631;51.962;5.974;2023-02-14T04:42:44;13.68;;;7.93;;
59756;SDS011;45631;51.962;5.974;2023-02-14T04:45:13;13.98;;;8.60;;
59756;SDS011;45631;51.962;5.974;2023-02-14T04:47:41;15.68;;;8.85;;
59756;SDS011;45631;51.962;5.974;2023-02-14T04:50:09;14.95;;;7.75;;
59756;SDS011;45631;51.962;5.974;2023-02-14T04:52:38;12.68;;;7.70;;
59756;SDS011;45631;51.962;5.974;2023-02-14T04:55:07;13.77;;;8.50;;
59756;SDS011;45631;51.962;5.974;2023-02-14T04:57:36;14.00;;;8.00;;
59756;SDS011;45631;51.962;5.974;2023-02-14T05:00:06;11.55;;;7.07;;
59756;SDS011;45631;51.962;5.974;2023-02-14T05:02:35;13.07;;;7.75;;
59756;SDS011;45631;51.962;5.974;2023-02-14T05:05:04;14.52;;;7.63;;
59756;SDS011;45631;51.962;5.974;2023-02-14T05:07:33;12.27;;;7.80;;
59756;SDS011;45631;51.962;5.974;2023-02-14T05:10:01;14.57;;;7.05;;
59756;SDS011;45631;51.962;5.974;2023-02-14T05:12:29;13.05;;;7.25;;
59756;SDS011;45631;51.962;5.974;2023-02-14T05:14:57;13.40;;;7.03;;
59756;SDS011;45631;51.962;5.974;2023-02-14T05:17:27;11.82;;;6.75;;
59756;SDS011;45631;51.962;5.974;2023-02-14T05:19:55;12.65;;;7.07;;
59756;SDS011;45631;51.962;5.974;2023-02-14T05:22:23;11.80;;;7.10;;
59756;SDS011;45631;51.962;5.974;2023-02-14T05:24:51;13.88;;;7.68;;
59756;SDS011;45631;51.962;5.974;2023-02-14T05:27:19;12.73;;;7.07;;
59756;SDS011;45631;51.962;5.974;2023-02-14T05:29:48;13.63;;;7.50;;
59756;SDS011;45631;51.962;5.974;2023-02-14T05:32:16;13.93;;;8.10;;
59756;SDS011;45631;51.962;5.974;2023-02-14T05:34:45;13.77;;;7.68;;
59756;SDS011;45631;51.962;5.974;2023-02-14T05:37:13;14.32;;;7.80;;
59756;SDS011;45631;51.962;5.974;2023-02-14T05:39:41;11.88;;;7.15;;
59756;SDS011;45631;51.962;5.974;2023-02-14T05:42:09;13.85;;;7.78;;
59756;SDS011;45631;51.962;5.974;2023-02-14T05:44:37;11.75;;;7.22;;
59756;SDS011;45631;51.962;5.974;2023-02-14T05:47:06;10.68;;;6.78;;
59756;SDS011;45631;51.962;5.974;2023-02-14T05:49:34;12.20;;;7.07;;
59756;SDS011;45631;51.962;5.974;2023-02-14T05:52:03;12.35;;;7.18;;
59756;SDS011;45631;51.962;5.974;2023-02-14T05:54:32;11.95;;;7.30;;
59756;SDS011;45631;51.962;5.974;2023-02-14T05:57:00;13.52;;;7.93;;
59756;SDS011;45631;51.962;5.974;2023-02-14T05:59:28;12.90;;;7.43;;
59756;SDS011;45631;51.962;5.974;2023-02-14T06:01:57;11.80;;;7.22;;
59756;SDS011;45631;51.962;5.974;2023-02-14T06:04:25;13.18;;;7.45;;
59756;SDS011;45631;51.962;5.974;2023-02-14T06:06:53;13.35;;;7.43;;
59756;SDS011;45631;51.962;5.974;2023-02-14T06:09:22;11.80;;;6.55;;
59756;SDS011;45631;51.962;5.974;2023-02-14T06:11:51;11.95;;;7.13;;
59756;SDS011;45631;51.962;5.974;2023-02-14T06:14:20;12.20;;;7.18;;
59756;SDS011;45631;51.962;5.974;2023-02-14T06:16:48;11.75;;;6.78;;
59756;SDS011;45631;51.962;5.974;2023-02-14T06:19:20;11.27;;;6.45;;
59756;SDS011;45631;51.962;5.974;2023-02-14T06:21:48;13.27;;;7.82;;
59756;SDS011;45631;51.962;5.974;2023-02-14T06:24:16;12.35;;;7.05;;
59756;SDS011;45631;51.962;5.974;2023-02-14T06:26:45;12.77;;;6.90;;
59756;SDS011;45631;51.962;5.974;2023-02-14T06:29:15;14.05;;;7.47;;
59756;SDS011;45631;51.962;5.974;2023-02-14T06:31:44;13.95;;;7.22;;
59756;SDS011;45631;51.962;5.974;2023-02-14T06:34:12;11.50;;;7.20;;
59756;SDS011;45631;51.962;5.974;2023-02-14T06:36:41;12.98;;;7.85;;
59756;SDS011;45631;51.962;5.974;2023-02-14T06:39:09;14.07;;;7.25;;
59756;SDS011;45631;51.962;5.974;2023-02-14T06:41:37;13.25;;;8.02;;
59756;SDS011;45631;51.962;5.974;2023-02-14T06:44:07;14.35;;;8.38;;
59756;SDS011;45631;51.962;5.974;2023-02-14T06:46:35;14.82;;;8.77;;
59756;SDS011;45631;51.962;5.974;2023-02-14T06:49:04;15.07;;;9.25;;
59756;SDS011;45631;51.962;5.974;2023-02-14T06:51:32;13.88;;;8.80;;
59756;SDS011;45631;51.962;5.974;2023-02-14T06:54:00;13.40;;;8.32;;
59756;SDS011;45631;51.962;5.974;2023-02-14T06:56:28;14.30;;;8.88;;
59756;SDS011;45631;51.962;5.974;2023-02-14T06:58:56;14.30;;;8.45;;
59756;SDS011;45631;51.962;5.974;2023-02-14T07:01:26;13.98;;;8.43;;
59756;SDS011;45631;51.962;5.974;2023-02-14T07:03:54;13.25;;;7.88;;
59756;SDS011;45631;51.962;5.974;2023-02-14T07:06:22;14.73;;;8.02;;
59756;SDS011;45631;51.962;5.974;2023-02-14T07:08:50;14.38;;;9.00;;
59756;SDS011;45631;51.962;5.974;2023-02-14T07:11:18;13.90;;;8.45;;
59756;SDS011;45631;51.962;5.974;2023-02-14T07:13:46;14.23;;;7.35;;
59756;SDS011;45631;51.962;5.974;2023-02-14T07:16:17;16.33;;;8.38;;
59756;SDS011;45631;51.962;5.974;2023-02-14T07:18:46;13.50;;;7.65;;
59756;SDS011;45631;51.962;5.974;2023-02-14T07:21:14;14.13;;;8.02;;
59756;SDS011;45631;51.962;5.974;2023-02-14T07:23:43;13.43;;;8.45;;
59756;SDS011;45631;51.962;5.974;2023-02-14T07:26:13;14.55;;;8.63;;
59756;SDS011;45631;51.962;5.974;2023-02-14T07:28:43;14.30;;;8.27;;
59756;SDS011;45631;51.962;5.974;2023-02-14T07:31:12;15.02;;;8.38;;
59756;SDS011;45631;51.962;5.974;2023-02-14T07:33:40;16.30;;;9.10;;
59756;SDS011;45631;51.962;5.974;2023-02-14T07:36:10;14.40;;;8.18;;
59756;SDS011;45631;51.962;5.974;2023-02-14T07:38:39;14.70;;;9.38;;
59756;SDS011;45631;51.962;5.974;2023-02-14T07:41:07;16.67;;;9.13;;
59756;SDS011;45631;51.962;5.974;2023-02-14T07:43:35;14.15;;;8.57;;
59756;SDS011;45631;51.962;5.974;2023-02-14T07:46:05;13.75;;;7.50;;
59756;SDS011;45631;51.962;5.974;2023-02-14T07:48:34;15.77;;;8.85;;
59756;SDS011;45631;51.962;5.974;2023-02-14T07:51:02;15.30;;;8.63;;
59756;SDS011;45631;51.962;5.974;2023-02-14T07:53:31;15.45;;;9.10;;
59756;SDS011;45631;51.962;5.974;2023-02-14T07:56:00;13.73;;;8.32;;
59756;SDS011;45631;51.962;5.974;2023-02-14T07:58:28;15.23;;;9.60;;
59756;SDS011;45631;51.962;5.974;2023-02-14T08:00:56;13.68;;;8.00;;
59756;SDS011;45631;51.962;5.974;2023-02-14T08:03:24;15.45;;;8.85;;
59756;SDS011;45631;51.962;5.974;2023-02-14T08:05:52;15.43;;;10.07;;
59756;SDS011;45631;51.962;5.974;2023-02-14T08:08:24;16.58;;;9.38;;
59756;SDS011;45631;51.962;5.974;2023-02-14T08:10:54;16.02;;;10.07;;
59756;SDS011;45631;51.962;5.974;2023-02-14T08:13:23;18.63;;;10.50;;
59756;SDS011;45631;51.962;5.974;2023-02-14T08:15:51;17.17;;;10.73;;
59756;SDS011;45631;51.962;5.974;2023-02-14T08:18:35;19.10;;;11.27;;
59756;SDS011;45631;51.962;5.974;2023-02-14T08:21:05;21.65;;;12.35;;
59756;SDS011;45631;51.962;5.974;2023-02-14T08:23:35;20.08;;;12.82;;
59756;SDS011;45631;51.962;5.974;2023-02-14T08:26:06;26.98;;;14.10;;
59756;SDS011;45631;51.962;5.974;2023-02-14T08:28:34;21.08;;;13.95;;
59756;SDS011;45631;51.962;5.974;2023-02-14T08:31:02;23.58;;;13.93;;
59756;SDS011;45631;51.962;5.974;2023-02-14T08:33:31;25.08;;;14.38;;
59756;SDS011;45631;51.962;5.974;2023-02-14T08:35:59;21.95;;;13.38;;
59756;SDS011;45631;51.962;5.974;2023-02-14T08:38:28;20.38;;;13.38;;
59756;SDS011;45631;51.962;5.974;2023-02-14T08:40:58;20.23;;;13.48;;
59756;SDS011;45631;51.962;5.974;2023-02-14T08:43:31;26.30;;;13.85;;
59756;SDS011;45631;51.962;5.974;2023-02-14T08:45:59;20.52;;;13.00;;
59756;SDS011;45631;51.962;5.974;2023-02-14T08:48:28;21.48;;;13.43;;
59756;SDS011;45631;51.962;5.974;2023-02-14T08:50:56;22.83;;;14.07;;
59756;SDS011;45631;51.962;5.974;2023-02-14T08:53:25;21.25;;;12.95;;
59756;SDS011;45631;51.962;5.974;2023-02-14T08:55:53;21.38;;;14.30;;
59756;SDS011;45631;51.962;5.974;2023-02-14T08:58:21;22.27;;;14.32;;
59756;SDS011;45631;51.962;5.974;2023-02-14T09:00:51;23.17;;;13.35;;
59756;SDS011;45631;51.962;5.974;2023-02-14T09:03:21;20.63;;;12.52;;
59756;SDS011;45631;51.962;5.974;2023-02-14T09:05:49;23.05;;;14.52;;
59756;SDS011;45631;51.962;5.974;2023-02-14T09:08:17;23.55;;;14.02;;
59756;SDS011;45631;51.962;5.974;2023-02-14T09:10:45;23.92;;;14.27;;
59756;SDS011;45631;51.962;5.974;2023-02-14T09:13:13;23.05;;;14.93;;
59756;SDS011;45631;51.962;5.974;2023-02-14T09:15:41;23.45;;;14.77;;
59756;SDS011;45631;51.962;5.974;2023-02-14T09:18:11;23.33;;;15.57;;
59756;SDS011;45631;51.962;5.974;2023-02-14T09:20:39;22.77;;;15.43;;
59756;SDS011;45631;51.962;5.974;2023-02-14T09:23:11;23.27;;;14.82;;
59756;SDS011;45631;51.962;5.974;2023-02-14T09:25:40;23.13;;;14.32;;
59756;SDS011;45631;51.962;5.974;2023-02-14T09:28:08;20.13;;;14.52;;
59756;SDS011;45631;51.962;5.974;2023-02-14T09:30:36;21.42;;;14.50;;
59756;SDS011;45631;51.962;5.974;2023-02-14T09:33:04;22.77;;;15.40;;
59756;SDS011;45631;51.962;5.974;2023-02-14T09:35:34;22.90;;;14.80;;
59756;SDS011;45631;51.962;5.974;2023-02-14T09:38:20;22.40;;;15.38;;
59756;SDS011;45631;51.962;5.974;2023-02-14T09:40:51;20.88;;;13.98;;
59756;SDS011;45631;51.962;5.974;2023-02-14T09:43:20;22.15;;;15.13;;
59756;SDS011;45631;51.962;5.974;2023-02-14T09:45:56;22.17;;;14.52;;
59756;SDS011;45631;51.962;5.974;2023-02-14T09:48:28;23.45;;;13.57;;
59756;SDS011;45631;51.962;5.974;2023-02-14T09:51:01;23.52;;;14.57;;
59756;SDS011;45631;51.962;5.974;2023-02-14T09:56:03;21.42;;;13.80;;
59756;SDS011;45631;51.962;5.974;2023-02-14T09:58:39;29.70;;;13.90;;
59756;SDS011;45631;51.962;5.974;2023-02-14T10:01:14;22.45;;;14.07;;
59756;SDS011;45631;51.962;5.974;2023-02-14T10:03:54;22.67;;;13.93;;
59756;SDS011;45631;51.962;5.974;2023-02-14T10:06:48;22.63;;;14.63;;
59756;SDS011;45631;51.962;5.974;2023-02-14T10:09:25;21.30;;;14.52;;
59756;SDS011;45631;51.962;5.974;2023-02-14T10:12:13;21.05;;;14.07;;
59756;SDS011;45631;51.962;5.974;2023-02-14T10:14:47;19.35;;;13.13;;
59756;SDS011;45631;51.962;5.974;2023-02-14T10:17:18;20.17;;;13.55;;
59756;SDS011;45631;51.962;5.974;2023-02-14T10:19:53;22.50;;;13.05;;
59756;SDS011;45631;51.962;5.974;2023-02-14T10:24:59;20.88;;;13.63;;
59756;SDS011;45631;51.962;5.974;2023-02-14T10:27:33;21.20;;;12.73;;
59756;SDS011;45631;51.962;5.974;2023-02-14T10:30:09;18.90;;;12.63;;
59756;SDS011;45631;51.962;5.974;2023-02-14T10:32:41;19.42;;;13.25;;
59756;SDS011;45631;51.962;5.974;2023-02-14T10:35:15;20.80;;;12.98;;
59756;SDS011;45631;51.962;5.974;2023-02-14T10:37:54;17.77;;;12.55;;
59756;SDS011;45631;51.962;5.974;2023-02-14T10:40:40;18.45;;;12.60;;
59756;SDS011;45631;51.962;5.974;2023-02-14T10:43:22;18.17;;;12.57;;
59756;SDS011;45631;51.962;5.974;2023-02-14T10:46:01;18.42;;;12.25;;
59756;SDS011;45631;51.962;5.974;2023-02-14T10:48:43;18.58;;;12.75;;
59756;SDS011;45631;51.962;5.974;2023-02-14T10:51:18;18.10;;;12.73;;
59756;SDS011;45631;51.962;5.974;2023-02-14T10:53:58;21.35;;;12.38;;
59756;SDS011;45631;51.962;5.974;2023-02-14T10:56:37;20.23;;;12.50;;
59756;SDS011;45631;51.962;5.974;2023-02-14T10:59:13;19.55;;;12.73;;
59756;SDS011;45631;51.962;5.974;2023-02-14T11:01:48;18.08;;;12.02;;
59756;SDS011;45631;51.962;5.974;2023-02-14T11:04:19;20.88;;;12.13;;
59756;SDS011;45631;51.962;5.974;2023-02-14T11:06:50;19.05;;;13.27;;
59756;SDS011;45631;51.962;5.974;2023-02-14T11:09:20;19.88;;;13.18;;
59756;SDS011;45631;51.962;5.974;2023-02-14T11:11:49;18.67;;;12.30;;
59756;SDS011;45631;51.962;5.974;2023-02-14T11:14:21;21.90;;;13.25;;
59756;SDS011;45631;51.962;5.974;2023-02-14T11:16:52;21.90;;;13.48;;
59756;SDS011;45631;51.962;5.974;2023-02-14T11:19:22;19.52;;;12.38;;
59756;SDS011;45631;51.962;5.974;2023-02-14T11:21:52;23.85;;;13.15;;
59756;SDS011;45631;51.962;5.974;2023-02-14T11:24:27;18.55;;;12.50;;
59756;SDS011;45631;51.962;5.974;2023-02-14T11:26:58;20.58;;;11.88;;
59756;SDS011;45631;51.962;5.974;2023-02-14T11:29:28;19.30;;;12.23;;
59756;SDS011;45631;51.962;5.974;2023-02-14T11:32:05;18.67;;;12.07;;
59756;SDS011;45631;51.962;5.974;2023-02-14T11:34:35;19.05;;;12.75;;
59756;SDS011;45631;51.962;5.974;2023-02-14T11:37:16;18.77;;;12.63;;
59756;SDS011;45631;51.962;5.974;2023-02-14T11:39:54;19.20;;;13.23;;
59756;SDS011;45631;51.962;5.974;2023-02-14T11:42:31;20.63;;;12.55;;
59756;SDS011;45631;51.962;5.974;2023-02-14T11:45:02;18.10;;;12.32;;
59756;SDS011;45631;51.962;5.974;2023-02-14T11:47:33;17.80;;;13.20;;
59756;SDS011;45631;51.962;5.974;2023-02-14T11:50:18;18.75;;;12.82;;
59756;SDS011;45631;51.962;5.974;2023-02-14T11:52:50;18.25;;;12.63;;
59756;SDS011;45631;51.962;5.974;2023-02-14T11:55:22;18.23;;;12.30;;
59756;SDS011;45631;51.962;5.974;2023-02-14T11:57:53;17.98;;;12.93;;
59756;SDS011;45631;51.962;5.974;2023-02-14T12:00:22;19.48;;;13.15;;
59756;SDS011;45631;51.962;5.974;2023-02-14T12:02:52;18.13;;;12.93;;
59756;SDS011;45631;51.962;5.974;2023-02-14T12:05:22;18.27;;;12.80;;
59756;SDS011;45631;51.962;5.974;2023-02-14T12:07:54;17.95;;;12.15;;
59756;SDS011;45631;51.962;5.974;2023-02-14T12:10:27;16.98;;;12.60;;
59756;SDS011;45631;51.962;5.974;2023-02-14T12:13:00;18.33;;;13.27;;
59756;SDS011;45631;51.962;5.974;2023-02-14T12:15:33;19.35;;;13.55;;
59756;SDS011;45631;51.962;5.974;2023-02-14T12:20:59;20.40;;;13.15;;
59756;SDS011;45631;51.962;5.974;2023-02-14T12:23:35;19.67;;;12.85;;
59756;SDS011;45631;51.962;5.974;2023-02-14T12:26:12;18.63;;;13.18;;
59756;SDS011;45631;51.962;5.974;2023-02-14T12:28:48;18.42;;;12.65;;
59756;SDS011;45631;51.962;5.974;2023-02-14T12:31:24;17.73;;;12.32;;
59756;SDS011;45631;51.962;5.974;2023-02-14T12:33:53;18.63;;;14.00;;
59756;SDS011;45631;51.962;5.974;2023-02-14T12:36:25;17.63;;;12.15;;
59756;SDS011;45631;51.962;5.974;2023-02-14T12:39:07;18.08;;;13.25;;
59756;SDS011;45631;51.962;5.974;2023-02-14T12:41:48;18.13;;;12.88;;
59756;SDS011;45631;51.962;5.974;2023-02-14T12:44:28;19.75;;;13.70;;
59756;SDS011;45631;51.962;5.974;2023-02-14T12:47:08;18.13;;;12.98;;
59756;SDS011;45631;51.962;5.974;2023-02-14T12:53:05;17.77;;;13.30;;
59756;SDS011;45631;51.962;5.974;2023-02-14T12:55:50;17.73;;;12.80;;
59756;SDS011;45631;51.962;5.974;2023-02-14T12:58:30;19.27;;;13.30;;
59756;SDS011;45631;51.962;5.974;2023-02-14T13:01:19;18.90;;;12.63;;
59756;SDS011;45631;51.962;5.974;2023-02-14T13:07:07;17.95;;;13.10;;
59756;SDS011;45631;51.962;5.974;2023-02-14T13:09:44;18.50;;;13.00;;
59756;SDS011;45631;51.962;5.974;2023-02-14T13:12:21;19.02;;;13.23;;
59756;SDS011;45631;51.962;5.974;2023-02-14T13:15:03;17.70;;;13.48;;
59756;SDS011;45631;51.962;5.974;2023-02-14T13:17:43;18.17;;;13.25;;
59756;SDS011;45631;51.962;5.974;2023-02-14T13:23:10;21.00;;;14.17;;
59756;SDS011;45631;51.962;5.974;2023-02-14T13:25:42;18.85;;;12.73;;
59756;SDS011;45631;51.962;5.974;2023-02-14T13:28:15;18.55;;;13.63;;
59756;SDS011;45631;51.962;5.974;2023-02-14T13:30:50;19.23;;;13.15;;
59756;SDS011;45631;51.962;5.974;2023-02-14T13:33:24;16.67;;;13.10;;
59756;SDS011;45631;51.962;5.974;2023-02-14T13:35:59;17.63;;;13.32;;
59756;SDS011;45631;51.962;5.974;2023-02-14T13:41:01;17.38;;;12.95;;
59756;SDS011;45631;51.962;5.974;2023-02-14T13:43:44;18.23;;;12.88;;
59756;SDS011;45631;51.962;5.974;2023-02-14T13:46:15;18.50;;;12.80;;
59756;SDS011;45631;51.962;5.974;2023-02-14T13:48:54;17.30;;;12.88;;
59756;SDS011;45631;51.962;5.974;2023-02-14T13:51:43;17.65;;;13.05;;
59756;SDS011;45631;51.962;5.974;2023-02-14T13:54:19;17.35;;;13.15;;
59756;SDS011;45631;51.962;5.974;2023-02-14T13:56:48;18.15;;;13.45;;
59756;SDS011;45631;51.962;5.974;2023-02-14T13:59:27;18.88;;;13.63;;
59756;SDS011;45631;51.962;5.974;2023-02-14T14:11:10;19.88;;;13.75;;
59756;SDS011;45631;51.962;5.974;2023-02-14T14:13:58;19.85;;;13.68;;
59756;SDS011;45631;51.962;5.974;2023-02-14T14:16:29;20.48;;;15.07;;
59756;SDS011;45631;51.962;5.974;2023-02-14T14:19:01;19.02;;;13.82;;
59756;SDS011;45631;51.962;5.974;2023-02-14T14:21:32;20.15;;;13.43;;
59756;SDS011;45631;51.962;5.974;2023-02-14T14:24:14;20.08;;;13.60;;
59756;SDS011;45631;51.962;5.974;2023-02-14T14:26:48;18.63;;;13.50;;
59756;SDS011;45631;51.962;5.974;2023-02-14T14:29:18;29.52;;;14.07;;
59756;SDS011;45631;51.962;5.974;2023-02-14T14:31:51;20.98;;;14.45;;
59756;SDS011;45631;51.962;5.974;2023-02-14T14:34:23;19.13;;;14.13;;
59756;SDS011;45631;51.962;5.974;2023-02-14T14:37:02;20.38;;;15.13;;
59756;SDS011;45631;51.962;5.974;2023-02-14T14:39:32;22.08;;;15.30;;
59756;SDS011;45631;51.962;5.974;2023-02-14T14:42:06;22.25;;;16.15;;
59756;SDS011;45631;51.962;5.974;2023-02-14T14:44:43;22.63;;;15.45;;
59756;SDS011;45631;51.962;5.974;2023-02-14T14:47:15;23.50;;;15.25;;
59756;SDS011;45631;51.962;5.974;2023-02-14T14:49:45;25.20;;;16.02;;
59756;SDS011;45631;51.962;5.974;2023-02-14T14:55:00;27.38;;;16.17;;
59756;SDS011;45631;51.962;5.974;2023-02-14T14:57:29;21.67;;;14.88;;
59756;SDS011;45631;51.962;5.974;2023-02-14T15:00:06;22.58;;;15.27;;
59756;SDS011;45631;51.962;5.974;2023-02-14T15:02:54;22.23;;;15.30;;
59756;SDS011;45631;51.962;5.974;2023-02-14T15:05:32;23.80;;;16.10;;
59756;SDS011;45631;51.962;5.974;2023-02-14T15:08:15;25.40;;;14.77;;
59756;SDS011;45631;51.962;5.974;2023-02-14T15:10:47;26.77;;;17.20;;
59756;SDS011;45631;51.962;5.974;2023-02-14T15:13:28;25.67;;;16.83;;
59756;SDS011;45631;51.962;5.974;2023-02-14T15:16:18;23.50;;;16.02;;
59756;SDS011;45631;51.962;5.974;2023-02-14T15:18:50;25.60;;;16.02;;
59756;SDS011;45631;51.962;5.974;2023-02-14T15:23:54;24.23;;;16.52;;
59756;SDS011;45631;51.962;5.974;2023-02-14T15:26:27;25.02;;;18.17;;
59756;SDS011;45631;51.962;5.974;2023-02-14T15:28:57;29.60;;;17.13;;
59756;SDS011;45631;51.962;5.974;2023-02-14T15:31:28;28.50;;;18.30;;
59756;SDS011;45631;51.962;5.974;2023-02-14T15:33:58;24.65;;;16.63;;
59756;SDS011;45631;51.962;5.974;2023-02-14T15:36:30;25.83;;;18.25;;
59756;SDS011;45631;51.962;5.974;2023-02-14T15:39:04;24.60;;;16.50;;
59756;SDS011;45631;51.962;5.974;2023-02-14T15:41:34;26.85;;;18.55;;